Time,TemperatureF,DewpointF,PressureIn,WindDirection,WindDirectionDegrees,WindSpeedMPH,WindSpeedGustMPH,Humidity,HourlyPrecipIn,Conditions,Clouds,dailyrainin,SoftwareType,DateUTC
2013-01-07 00:00:00,50.0,44.1,30.19,WSW,248,0.0,0.0,80,0.00,CLR,,0.00,WeatherDisplay:10.37,2013-01-07 05:00:00,
2013-01-07 00:01:00,50.0,44.1,30.19,WSW,248,0.0,0.0,80,0.00,CLR,,0.00,WeatherDisplay:10.37,2013-01-07 05:01:00,
2013-01-07 00:04:00,50.0,44.1,30.19,WSW,248,0.0,0.0,80,0.00,CLR,,0.00,WeatherDisplay:10.37,2013-01-07 05:04:00,
2013-01-07 00:09:00,50.0,44.1,30.20,WSW,248,0.0,0.0,80,0.00,CLR,,0.00,WeatherDisplay:10.37,2013-01-07 05:09:00,
2013-01-07 00:12:00,50.0,44.1,30.20,WSW,248,0.0,0.0,80,0.00,CLR,,0.00,WeatherDisplay:10.37,2013-01-07 05:12:00,
2013-01-07 00:17:00,49.8,43.9,30.20,WSW,248,0.0,0.0,80,0.00,CLR,,0.00,WeatherDisplay:10.37,2013-01-07 05:17:00,
2013-01-07 00:22:00,49.8,43.9,30.20,WSW,248,0.0,0.0,80,0.00,CLR,,0.00,WeatherDisplay:10.37,2013-01-07 05:22:00,
2013-01-07 00:27:00,49.8,43.9,30.20,WSW,248,0.0,0.0,80,0.00,CLR,,0.00,WeatherDisplay:10.37,2013-01-07 05:27:00,
2013-01-07 00:32:00,50.0,44.1,30.20,WSW,248,0.0,0.0,80,0.00,CLR,,0.00,WeatherDisplay:10.37,2013-01-07 05:32:00,
2013-01-07 00:37:00,50.0,43.7,30.20,WSW,248,0.0,0.0,79,0.00,CLR,,0.00,WeatherDisplay:10.37,2013-01-07 05:37:00,
2013-01-07 00:42:00,50.0,43.7,30.20,WSW,248,0.0,0.0,79,0.00,CLR,,0.00,WeatherDisplay:10.37,2013-01-07 05:42:00,
2013-01-07 00:47:00,49.8,43.2,30.20,WSW,248,0.0,0.0,78,0.00,CLR,,0.00,WeatherDisplay:10.37,2013-01-07 05:47:00,
2013-01-07 00:52:00,49.8,43.6,30.19,WSW,248,0.0,0.0,79,0.00,CLR,,0.00,WeatherDisplay:10.37,2013-01-07 05:52:00,
2013-01-07 00:57:00,49.5,42.9,30.19,WSW,248,0.0,0.0,78,0.00,CLR,,0.00,WeatherDisplay:10.37,2013-01-07 05:57:00,
2013-01-07 01:02:00,49.5,42.9,30.19,WSW,248,0.0,0.0,78,0.00,CLR,,0.00,WeatherDisplay:10.37,2013-01-07 06:02:00,
2013-01-07 01:07:00,49.3,42.7,30.19,WSW,248,0.0,0.0,78,0.00,CLR,,0.00,WeatherDisplay:10.37,2013-01-07 06:07:00,
2013-01-07 01:12:00,49.3,42.7,30.19,WSW,248,0.0,0.0,78,0.00,CLR,,0.00,WeatherDisplay:10.37,2013-01-07 06:12:00,
2013-01-07 01:17:00,48.9,42.4,30.19,WSW,248,0.0,0.0,78,0.00,CLR,,0.00,WeatherDisplay:10.37,2013-01-07 06:17:00,
2013-01-07 01:22:00,48.7,42.2,30.19,WSW,248,0.0,0.0,78,0.00,CLR,,0.00,WeatherDisplay:10.37,2013-01-07 06:22:00,
2013-01-07 01:27:00,48.6,42.0,30.19,WSW,248,0.0,0.0,78,0.00,CLR,,0.00,WeatherDisplay:10.37,2013-01-07 06:27:00,
2013-01-07 01:32:00,48.6,42.0,30.20,WSW,248,0.0,0.0,78,0.00,CLR,,0.00,WeatherDisplay:10.37,2013-01-07 06:32:00,
2013-01-07 01:37:00,48.2,41.7,30.20,WSW,248,0.0,0.0,78,0.00,CLR,,0.00,WeatherDisplay:10.37,2013-01-07 06:37:00,
2013-01-07 01:42:00,48.4,41.8,30.20,WSW,248,0.0,0.0,78,0.00,CLR,,0.00,WeatherDisplay:10.37,2013-01-07 06:42:00,
2013-01-07 01:47:00,48.4,41.8,30.20,WSW,248,0.0,0.0,78,0.00,CLR,,0.00,WeatherDisplay:10.37,2013-01-07 06:47:00,
2013-01-07 01:52:00,48.0,41.5,30.20,WSW,248,0.0,0.0,78,0.00,CLR,,0.00,WeatherDisplay:10.37,2013-01-07 06:52:00,
2013-01-07 01:57:00,48.0,41.5,30.20,WSW,248,0.0,0.0,78,0.00,CLR,,0.00,WeatherDisplay:10.37,2013-01-07 06:57:00,
2013-01-07 02:02:00,47.8,41.3,30.20,WSW,248,0.0,0.0,78,0.00,CLR,,0.00,WeatherDisplay:10.37,2013-01-07 07:02:00,
2013-01-07 02:07:00,47.7,41.1,30.20,WSW,248,0.0,0.0,78,0.00,CLR,,0.00,WeatherDisplay:10.37,2013-01-07 07:07:00,
2013-01-07 02:12:00,47.7,41.1,30.20,WSW,248,0.0,0.0,78,0.00,CLR,,0.00,WeatherDisplay:10.37,2013-01-07 07:12:00,
2013-01-07 02:17:00,47.1,40.9,30.20,WSW,248,0.0,0.0,79,0.00,CLR,,0.00,WeatherDisplay:10.37,2013-01-07 07:17:00,
2013-01-07 02:22:00,47.1,40.9,30.20,WSW,248,0.0,0.0,79,0.00,CLR,,0.00,WeatherDisplay:10.37,2013-01-07 07:22:00,
2013-01-07 02:27:00,46.9,40.8,30.20,WSW,248,0.0,0.0,79,0.00,CLR,,0.00,WeatherDisplay:10.37,2013-01-07 07:27:00,
2013-01-07 02:32:00,46.8,40.6,30.20,WSW,248,0.0,0.0,79,0.00,CLR,,0.00,WeatherDisplay:10.37,2013-01-07 07:32:00,
2013-01-07 02:37:00,46.9,41.1,30.20,WSW,248,0.0,0.0,80,0.00,CLR,,0.00,WeatherDisplay:10.37,2013-01-07 07:37:00,
2013-01-07 02:42:00,46.4,40.6,30.20,WSW,248,0.0,0.0,80,0.00,CLR,,0.00,WeatherDisplay:10.37,2013-01-07 07:42:00,
2013-01-07 02:47:00,46.4,40.6,30.20,WSW,248,0.0,0.0,80,0.00,CLR,,0.00,WeatherDisplay:10.37,2013-01-07 07:47:00,
2013-01-07 02:52:00,46.2,40.4,30.20,WSW,248,0.0,0.0,80,0.00,CLR,,0.00,WeatherDisplay:10.37,2013-01-07 07:52:00,
2013-01-07 02:57:00,46.2,40.7,30.20,WSW,248,0.0,0.0,81,0.00,CLR,,0.00,WeatherDisplay:10.37,2013-01-07 07:57:00,
2013-01-07 03:02:00,45.9,40.4,30.20,SW,225,0.3,0.0,81,0.00,CLR,,0.00,WeatherDisplay:10.37,2013-01-07 08:02:00,
2013-01-07 03:07:00,45.9,40.7,30.20,ENE,68,0.3,0.0,82,0.00,CLR,,0.00,WeatherDisplay:10.37,2013-01-07 08:07:00,
2013-01-07 03:12:00,45.7,40.5,30.21,NNE,22,0.1,0.0,82,0.00,CLR,,0.00,WeatherDisplay:10.37,2013-01-07 08:12:00,
2013-01-07 03:17:00,45.7,40.5,30.21,NE,45,0.2,1.4,82,0.00,CLR,,0.00,WeatherDisplay:10.37,2013-01-07 08:17:00,
2013-01-07 03:22:00,45.5,40.3,30.21,NNW,338,0.3,0.0,82,0.00,CLR,,0.00,WeatherDisplay:10.37,2013-01-07 08:22:00,
2013-01-07 03:27:00,45.3,40.5,30.21,NNE,22,0.2,1.1,83,0.00,CLR,,0.00,WeatherDisplay:10.37,2013-01-07 08:27:00,
2013-01-07 03:32:00,45.5,40.6,30.21,West,270,0.2,1.1,83,0.00,CLR,,0.00,WeatherDisplay:10.37,2013-01-07 08:32:00,
2013-01-07 03:37:00,45.1,40.3,30.21,NE,45,0.2,2.4,83,0.00,CLR,,0.00,WeatherDisplay:10.37,2013-01-07 08:37:00,
2013-01-07 03:42:00,45.0,40.1,30.21,East,90,0.2,1.4,83,0.00,CLR,,0.00,WeatherDisplay:10.37,2013-01-07 08:42:00,
2013-01-07 03:47:00,45.1,40.3,30.21,ENE,68,0.3,1.1,83,0.00,CLR,,0.00,WeatherDisplay:10.37,2013-01-07 08:47:00,
2013-01-07 03:52:00,45.0,40.1,30.21,SSE,158,0.2,0.0,83,0.00,CLR,,0.00,WeatherDisplay:10.37,2013-01-07 08:52:00,
2013-01-07 03:57:00,44.8,39.9,30.21,NE,45,0.1,1.6,83,0.00,CLR,,0.00,WeatherDisplay:10.37,2013-01-07 08:57:00,
2013-01-07 04:02:00,44.6,39.8,30.21,NE,45,0.3,1.3,83,0.00,CLR,,0.00,WeatherDisplay:10.37,2013-01-07 09:02:00,
2013-01-07 04:07:00,44.8,39.9,30.21,ENE,68,0.3,0.0,83,0.00,CLR,,0.00,WeatherDisplay:10.37,2013-01-07 09:07:00,
2013-01-07 04:12:00,44.8,39.9,30.20,ENE,68,0.5,1.1,83,0.00,CLR,,0.00,WeatherDisplay:10.37,2013-01-07 09:12:00,
2013-01-07 04:17:00,44.8,39.9,30.20,East,90,0.3,0.0,83,0.00,CLR,,0.00,WeatherDisplay:10.37,2013-01-07 09:17:00,
2013-01-07 04:22:00,44.6,39.4,30.20,SE,135,0.5,2.3,82,0.00,CLR,,0.00,WeatherDisplay:10.37,2013-01-07 09:22:00,
2013-01-07 04:27:00,44.6,39.4,30.20,North,0,0.7,1.1,82,0.00,CLR,,0.00,WeatherDisplay:10.37,2013-01-07 09:27:00,
2013-01-07 04:32:00,44.8,39.6,30.21,East,90,0.6,0.0,82,0.00,CLR,,0.00,WeatherDisplay:10.37,2013-01-07 09:32:00,
2013-01-07 04:37:00,44.4,39.3,30.21,NE,45,0.5,0.0,82,0.00,CLR,,0.00,WeatherDisplay:10.37,2013-01-07 09:37:00,
2013-01-07 04:43:00,44.4,39.0,30.21,NNE,22,0.3,1.6,81,0.00,CLR,,0.00,WeatherDisplay:10.37,2013-01-07 09:43:00,
2013-01-07 04:48:00,44.4,39.0,30.21,North,0,0.2,0.0,81,0.00,CLR,,0.00,WeatherDisplay:10.37,2013-01-07 09:48:00,
2013-01-07 04:53:00,44.4,39.0,30.22,SE,135,0.1,0.0,81,0.00,CLR,,0.00,WeatherDisplay:10.37,2013-01-07 09:53:00,
2013-01-07 04:58:00,44.2,38.8,30.22,NNE,22,0.3,1.4,81,0.00,CLR,,0.00,WeatherDisplay:10.37,2013-01-07 09:58:00,
2013-01-07 05:03:00,44.4,39.0,30.22,ESE,112,0.5,2.3,81,0.00,CLR,,0.00,WeatherDisplay:10.37,2013-01-07 10:03:00,
2013-01-07 05:08:00,44.2,38.8,30.22,NE,45,0.3,1.3,81,0.00,CLR,,0.00,WeatherDisplay:10.37,2013-01-07 10:08:00,
2013-01-07 05:13:00,44.1,38.6,30.23,ESE,112,0.2,1.1,81,0.00,CLR,,0.00,WeatherDisplay:10.37,2013-01-07 10:13:00,
2013-01-07 05:18:00,44.1,38.6,30.23,ENE,68,0.1,0.0,81,0.00,CLR,,0.00,WeatherDisplay:10.37,2013-01-07 10:18:00,
2013-01-07 05:23:00,43.9,38.4,30.23,ENE,68,0.1,0.0,81,0.00,CLR,,0.00,WeatherDisplay:10.37,2013-01-07 10:23:00,
2013-01-07 05:28:00,44.1,38.6,30.23,ESE,112,0.3,0.0,81,0.00,CLR,,0.00,WeatherDisplay:10.37,2013-01-07 10:28:00,
2013-01-07 05:33:00,43.7,38.6,30.25,NE,45,0.2,0.0,82,0.00,CLR,,0.00,WeatherDisplay:10.37,2013-01-07 10:33:00,
2013-01-07 05:38:00,43.5,38.4,30.25,ESE,112,0.1,0.0,82,0.00,CLR,,0.00,WeatherDisplay:10.37,2013-01-07 10:38:00,
2013-01-07 05:43:00,43.5,38.4,30.25,NE,45,0.1,0.0,82,0.00,CLR,,0.00,WeatherDisplay:10.37,2013-01-07 10:43:00,
2013-01-07 05:48:00,43.5,38.4,30.25,ENE,68,0.0,0.0,82,0.00,CLR,,0.00,WeatherDisplay:10.37,2013-01-07 10:48:00,
2013-01-07 05:53:00,43.5,38.4,30.25,ENE,68,0.0,0.0,82,0.00,CLR,,0.00,WeatherDisplay:10.37,2013-01-07 10:53:00,
2013-01-07 05:58:00,43.5,38.4,30.25,NE,45,0.0,0.0,82,0.00,CLR,,0.00,WeatherDisplay:10.37,2013-01-07 10:58:00,
2013-01-07 06:03:00,43.3,38.2,30.25,ENE,68,0.0,0.0,82,0.00,CLR,,0.00,WeatherDisplay:10.37,2013-01-07 11:03:00,
2013-01-07 06:08:00,43.3,38.2,30.25,NE,45,0.1,0.0,82,0.00,CLR,,0.00,WeatherDisplay:10.37,2013-01-07 11:08:00,
2013-01-07 06:13:00,43.2,38.0,30.26,East,90,0.1,0.0,82,0.00,CLR,,0.00,WeatherDisplay:10.37,2013-01-07 11:13:00,
2013-01-07 06:18:00,43.2,38.3,30.26,West,270,0.0,0.0,83,0.00,CLR,,0.00,WeatherDisplay:10.37,2013-01-07 11:18:00,
2013-01-07 06:23:00,43.0,38.2,30.26,WSW,248,0.0,0.0,83,0.00,CLR,,0.00,WeatherDisplay:10.37,2013-01-07 11:23:00,
2013-01-07 06:28:00,42.8,38.0,30.26,NNW,338,0.0,0.0,83,0.00,CLR,,0.00,WeatherDisplay:10.37,2013-01-07 11:28:00,
2013-01-07 06:33:00,42.8,38.0,30.27,NNE,22,0.0,0.0,83,0.00,CLR,,0.00,WeatherDisplay:10.37,2013-01-07 11:33:00,
2013-01-07 06:38:00,42.8,38.0,30.27,NNE,22,0.0,0.0,83,0.00,CLR,,0.00,WeatherDisplay:10.37,2013-01-07 11:38:00,
2013-01-07 06:43:00,43.0,38.2,30.27,NNE,22,0.0,0.0,83,0.00,CLR,,0.00,WeatherDisplay:10.37,2013-01-07 11:43:00,
2013-01-07 06:48:00,43.0,38.2,30.27,NNE,22,0.0,0.0,83,0.00,CLR,,0.00,WeatherDisplay:10.37,2013-01-07 11:48:00,
2013-01-07 06:53:00,42.8,38.0,30.28,NNE,22,0.0,0.0,83,0.00,CLR,,0.00,WeatherDisplay:10.37,2013-01-07 11:53:00,
2013-01-07 06:58:00,42.6,37.8,30.28,NNE,22,0.0,0.0,83,0.00,CLR,,0.00,WeatherDisplay:10.37,2013-01-07 11:58:00,
2013-01-07 07:03:00,42.4,37.6,30.28,NNE,22,0.0,0.0,83,0.00,CLR,,0.00,WeatherDisplay:10.37,2013-01-07 12:03:00,
2013-01-07 07:08:00,42.6,37.8,30.28,NNE,22,0.0,0.0,83,0.00,CLR,,0.00,WeatherDisplay:10.37,2013-01-07 12:08:00,
2013-01-07 07:13:00,42.4,37.6,30.28,NNE,22,0.0,0.0,83,0.00,CLR,,0.00,WeatherDisplay:10.37,2013-01-07 12:13:00,
2013-01-07 07:18:00,42.3,37.8,30.28,ESE,112,0.0,0.0,84,0.00,CLR,,0.00,WeatherDisplay:10.37,2013-01-07 12:18:00,
2013-01-07 07:23:00,42.3,37.8,30.28,NE,45,0.0,0.0,84,0.00,CLR,,0.00,WeatherDisplay:10.37,2013-01-07 12:23:00,
2013-01-07 07:28:00,42.4,37.9,30.28,NE,45,0.0,0.0,84,0.00,CLR,,0.00,WeatherDisplay:10.37,2013-01-07 12:28:00,
2013-01-07 07:33:00,42.4,37.9,30.30,NE,45,0.0,0.0,84,0.00,CLR,,0.00,WeatherDisplay:10.37,2013-01-07 12:33:00,
2013-01-07 07:38:00,42.6,38.1,30.30,NE,45,0.1,0.0,84,0.00,CLR,,0.00,WeatherDisplay:10.37,2013-01-07 12:38:00,
2013-01-07 07:44:00,42.6,38.1,30.30,NE,45,0.1,0.0,84,0.00,CLR,,0.00,WeatherDisplay:10.37,2013-01-07 12:44:00,
2013-01-07 07:49:00,42.6,38.1,30.32,SSE,158,0.0,0.0,84,0.00,CLR,,0.00,WeatherDisplay:10.37,2013-01-07 12:49:00,
2013-01-07 07:54:00,42.8,38.3,30.32,ENE,68,0.0,0.0,84,0.00,CLR,,0.00,WeatherDisplay:10.37,2013-01-07 12:54:00,
2013-01-07 07:59:00,42.8,38.3,30.32,NNE,22,0.1,0.0,84,0.00,CLR,,0.00,WeatherDisplay:10.37,2013-01-07 12:59:00,
2013-01-07 08:04:00,43.3,38.8,30.32,South,180,0.1,1.1,84,0.00,CLR,,0.00,WeatherDisplay:10.37,2013-01-07 13:04:00,
2013-01-07 08:09:00,43.2,38.3,30.33,ENE,68,0.3,3.5,83,0.00,CLR,,0.00,WeatherDisplay:10.37,2013-01-07 13:09:00,
2013-01-07 08:14:00,43.7,38.6,30.33,ESE,112,0.6,0.0,82,0.00,CLR,,0.00,WeatherDisplay:10.37,2013-01-07 13:14:00,
2013-01-07 08:19:00,43.7,38.3,30.33,ENE,68,0.5,2.3,81,0.00,CLR,,0.00,WeatherDisplay:10.37,2013-01-07 13:19:00,
2013-01-07 08:24:00,44.1,38.6,30.33,SE,135,0.3,1.1,81,0.00,CLR,,0.00,WeatherDisplay:10.37,2013-01-07 13:24:00,
2013-01-07 08:29:00,44.4,38.6,30.34,ENE,68,0.3,1.1,80,0.00,CLR,,0.00,WeatherDisplay:10.37,2013-01-07 13:29:00,
2013-01-07 08:34:00,45.5,39.4,30.34,North,0,0.6,1.1,79,0.00,CLR,,0.00,WeatherDisplay:10.37,2013-01-07 13:34:00,
2013-01-07 08:39:00,45.7,39.2,30.34,East,90,0.5,1.1,78,0.00,CLR,,0.00,WeatherDisplay:10.37,2013-01-07 13:39:00,
2013-01-07 08:44:00,46.9,39.8,30.34,SSE,158,1.1,2.3,76,0.00,CLR,,0.00,WeatherDisplay:10.37,2013-01-07 13:44:00,
2013-01-07 08:49:00,47.5,39.9,30.37,ESE,112,1.4,1.4,75,0.00,CLR,,0.00,WeatherDisplay:10.37,2013-01-07 13:49:00,
2013-01-07 08:54:00,48.6,40.3,30.37,East,90,1.0,0.0,73,0.00,CLR,,0.00,WeatherDisplay:10.37,2013-01-07 13:54:00,
2013-01-07 08:59:00,48.9,40.3,30.37,NNE,22,0.5,2.3,72,0.00,CLR,,0.00,WeatherDisplay:10.37,2013-01-07 13:59:00,
2013-01-07 09:04:00,49.1,39.4,30.37,North,0,0.9,2.4,69,0.00,CLR,,0.00,WeatherDisplay:10.37,2013-01-07 14:04:00,
2013-01-07 09:09:00,49.1,39.0,30.42,ESE,112,1.7,4.6,68,0.00,CLR,,0.00,WeatherDisplay:10.37,2013-01-07 14:09:00,
2013-01-07 09:37:00,-167.8,99.9,30.28,SSW,202,32.2,0.0,73,0.00,,,0.00,WeatherDisplay:10.37,2013-01-07 14:37:00,
2013-01-07 09:42:00,50.0,38.3,30.47,ENE,68,1.3,4.6,64,0.00,CLR,,0.00,WeatherDisplay:10.37,2013-01-07 14:42:00,
2013-01-07 09:47:00,50.2,38.1,30.47,ESE,112,2.1,5.1,63,0.00,CLR,,0.00,WeatherDisplay:10.37,2013-01-07 14:47:00,
2013-01-07 09:52:00,50.5,38.0,30.51,East,90,2.3,3.5,62,0.00,CLR,,0.00,WeatherDisplay:10.37,2013-01-07 14:52:00,
2013-01-07 09:57:00,50.9,38.3,30.51,NNE,22,2.3,2.3,62,0.00,CLR,,0.00,WeatherDisplay:10.37,2013-01-07 14:57:00,
2013-01-07 10:02:00,51.3,37.8,30.51,ESE,112,2.1,4.8,60,0.00,CLR,,0.00,WeatherDisplay:10.37,2013-01-07 15:02:00,
2013-01-07 10:07:00,52.3,38.0,30.51,ESE,112,2.3,3.5,58,0.00,CLR,,0.00,WeatherDisplay:10.37,2013-01-07 15:07:00,
2013-01-07 10:12:00,53.1,38.7,30.54,ESE,112,2.5,3.5,58,0.00,CLR,,0.00,WeatherDisplay:10.37,2013-01-07 15:12:00,
2013-01-07 10:17:00,53.8,38.9,30.54,SE,135,2.5,3.5,57,0.00,CLR,,0.00,WeatherDisplay:10.37,2013-01-07 15:17:00,
2013-01-07 10:22:00,53.4,37.6,30.54,ENE,68,2.6,4.9,55,0.00,CLR,,0.00,WeatherDisplay:10.37,2013-01-07 15:22:00,
2013-01-07 10:27:00,53.2,37.9,30.54,NNE,22,2.4,4.6,56,0.00,CLR,,0.00,WeatherDisplay:10.37,2013-01-07 15:27:00,
2013-01-07 10:32:00,53.1,37.3,30.52,East,90,2.0,3.5,55,0.00,CLR,,0.00,WeatherDisplay:10.37,2013-01-07 15:32:00,
2013-01-07 10:38:00,53.1,37.8,30.52,NE,45,1.8,1.8,56,0.00,CLR,,0.00,WeatherDisplay:10.37,2013-01-07 15:38:00,
2013-01-07 10:43:00,53.6,37.8,30.52,East,90,1.5,3.5,55,0.00,CLR,,0.00,WeatherDisplay:10.37,2013-01-07 15:43:00,
2013-01-07 10:48:00,53.8,37.5,30.52,ENE,68,1.3,1.3,54,0.00,CLR,,0.00,WeatherDisplay:10.37,2013-01-07 15:48:00,
2013-01-07 10:53:00,54.3,38.5,30.50,East,90,1.4,1.4,55,0.00,CLR,,0.00,WeatherDisplay:10.37,2013-01-07 15:53:00,
2013-01-07 10:58:00,54.5,38.7,30.50,South,180,1.1,2.3,55,0.00,CLR,,0.00,WeatherDisplay:10.37,2013-01-07 15:58:00,
2013-01-07 11:03:00,55.2,38.4,30.50,NNE,22,1.7,2.3,53,0.00,CLR,,0.00,WeatherDisplay:10.37,2013-01-07 16:03:00,
2013-01-07 11:08:00,55.9,38.6,30.50,NNW,338,2.1,2.3,52,0.00,CLR,,0.00,WeatherDisplay:10.37,2013-01-07 16:08:00,
2013-01-07 11:13:00,55.8,38.4,30.50,NE,45,2.2,3.5,52,0.00,CLR,,0.00,WeatherDisplay:10.37,2013-01-07 16:13:00,
2013-01-07 11:18:00,55.8,37.9,30.50,WSW,248,2.1,2.3,51,0.00,CLR,,0.00,WeatherDisplay:10.37,2013-01-07 16:18:00,
2013-01-07 11:23:00,56.3,39.4,30.50,ENE,68,1.8,3.5,53,0.00,CLR,,0.00,WeatherDisplay:10.37,2013-01-07 16:23:00,
2013-01-07 11:28:00,56.1,38.2,30.50,East,90,1.5,1.5,51,0.00,CLR,,0.00,WeatherDisplay:10.37,2013-01-07 16:28:00,
2013-01-07 11:33:00,56.5,38.6,30.50,NW,315,2.0,2.3,51,0.00,CLR,,0.00,WeatherDisplay:10.37,2013-01-07 16:33:00,
2013-01-07 11:38:00,56.7,37.7,30.50,East,90,2.4,3.5,49,0.00,CLR,,0.00,WeatherDisplay:10.37,2013-01-07 16:38:00,
2013-01-07 11:43:00,56.8,37.3,30.50,NE,45,2.1,3.5,48,0.00,CLR,,0.00,WeatherDisplay:10.37,2013-01-07 16:43:00,
2013-01-07 11:48:00,57.0,38.0,30.50,ENE,68,2.0,2.0,49,0.00,CLR,,0.00,WeatherDisplay:10.37,2013-01-07 16:48:00,
2013-01-07 11:53:00,57.2,37.7,30.49,East,90,1.5,2.3,48,0.00,CLR,,0.00,WeatherDisplay:10.37,2013-01-07 16:53:00,
2013-01-07 11:58:00,57.2,37.7,30.49,WSW,248,1.5,2.3,48,0.00,CLR,,0.00,WeatherDisplay:10.37,2013-01-07 16:58:00,
2013-01-07 12:03:00,57.7,39.2,30.49,ESE,112,1.1,1.1,50,0.00,CLR,,0.00,WeatherDisplay:10.37,2013-01-07 17:03:00,
2013-01-07 12:08:00,57.7,38.7,30.49,ESE,112,1.3,3.5,49,0.00,CLR,,0.00,WeatherDisplay:10.37,2013-01-07 17:08:00,
2013-01-07 12:13:00,58.1,39.0,30.48,ENE,68,1.7,4.6,49,0.00,CLR,,0.00,WeatherDisplay:10.37,2013-01-07 17:13:00,
2013-01-07 12:18:00,57.9,38.3,30.48,ENE,68,1.6,0.0,48,0.00,CLR,,0.00,WeatherDisplay:10.37,2013-01-07 17:18:00,
2013-01-07 12:23:00,58.3,38.7,30.48,South,180,1.4,3.5,48,0.00,CLR,,0.00,WeatherDisplay:10.37,2013-01-07 17:23:00,
2013-01-07 12:28:00,58.5,37.7,30.48,NNE,22,1.4,2.3,46,0.00,CLR,,0.00,WeatherDisplay:10.37,2013-01-07 17:28:00,
2013-01-07 12:33:00,58.8,38.6,30.46,ESE,112,1.7,2.3,47,0.00,CLR,,0.00,WeatherDisplay:10.37,2013-01-07 17:33:00,
2013-01-07 12:38:00,59.5,37.6,30.46,ESE,112,2.1,2.3,44,0.00,CLR,,0.00,WeatherDisplay:10.37,2013-01-07 17:38:00,
2013-01-07 12:43:00,60.6,38.0,30.46,ENE,68,2.0,2.3,43,0.00,CLR,,0.00,WeatherDisplay:10.37,2013-01-07 17:43:00,
2013-01-07 12:48:00,60.8,38.7,30.46,NNW,338,1.4,1.4,44,0.00,CLR,,0.00,WeatherDisplay:10.37,2013-01-07 17:48:00,
2013-01-07 12:53:00,61.0,38.3,30.46,SE,135,1.5,2.3,43,0.00,CLR,,0.00,WeatherDisplay:10.37,2013-01-07 17:53:00,
2013-01-07 12:58:00,60.8,38.1,30.46,NNE,22,1.5,2.3,43,0.00,CLR,,0.00,WeatherDisplay:10.37,2013-01-07 17:58:00,
2013-01-07 13:03:00,61.3,38.6,30.46,ENE,68,1.7,3.5,43,0.00,CLR,,0.00,WeatherDisplay:10.37,2013-01-07 18:03:00,
2013-01-07 13:08:00,61.5,38.2,30.46,North,0,1.8,2.3,42,0.00,CLR,,0.00,WeatherDisplay:10.37,2013-01-07 18:08:00,
2013-01-07 13:13:00,61.0,37.7,30.45,ESE,112,2.0,3.6,42,0.00,CLR,,0.00,WeatherDisplay:10.37,2013-01-07 18:13:00,
2013-01-07 13:18:00,61.0,37.7,30.45,SE,135,2.2,2.6,42,0.00,CLR,,0.00,WeatherDisplay:10.37,2013-01-07 18:18:00,
2013-01-07 13:23:00,60.8,37.5,30.45,NNW,338,2.0,3.5,42,0.00,CLR,,0.00,WeatherDisplay:10.37,2013-01-07 18:23:00,
2013-01-07 13:28:00,61.0,37.7,30.45,NNW,338,2.0,2.3,42,0.00,CLR,,0.00,WeatherDisplay:10.37,2013-01-07 18:28:00,
2013-01-07 13:33:00,61.9,38.5,30.45,NNW,338,2.0,2.3,42,0.00,CLR,,0.00,WeatherDisplay:10.37,2013-01-07 18:33:00,
2013-01-07 13:38:00,62.4,38.4,30.45,NNW,338,2.0,2.3,41,0.00,CLR,,0.00,WeatherDisplay:10.37,2013-01-07 18:38:00,
2013-01-07 13:43:00,62.2,38.2,30.45,NNW,338,0.0,0.0,41,0.00,CLR,,0.00,WeatherDisplay:10.37,2013-01-07 18:43:00,
2013-01-07 13:48:00,61.5,37.6,30.45,NNW,338,0.0,0.0,41,0.00,CLR,,0.00,WeatherDisplay:10.37,2013-01-07 18:48:00,
2013-01-07 13:53:00,61.9,37.9,30.44,NNW,338,0.0,0.0,41,0.00,CLR,,0.00,WeatherDisplay:10.37,2013-01-07 18:53:00,
2013-01-07 13:58:00,62.1,38.1,30.44,NNW,338,0.0,0.0,41,0.00,CLR,,0.00,WeatherDisplay:10.37,2013-01-07 18:58:00,
2013-01-07 14:03:00,61.3,37.4,30.44,NNW,338,0.0,0.0,41,0.00,CLR,,0.00,WeatherDisplay:10.37,2013-01-07 19:03:00,
2013-01-07 14:08:00,61.3,38.0,30.44,NNW,338,0.0,0.0,42,0.00,CLR,,0.00,WeatherDisplay:10.37,2013-01-07 19:08:00,
2013-01-07 14:13:00,61.5,37.6,30.46,NNW,338,0.0,0.0,41,0.00,CLR,,0.00,WeatherDisplay:10.37,2013-01-07 19:13:00,
2013-01-07 14:18:00,61.7,38.4,30.46,NNW,338,0.0,0.0,42,0.00,CLR,,0.00,WeatherDisplay:10.37,2013-01-07 19:18:00,
2013-01-07 14:23:00,61.5,37.6,30.46,NNW,338,0.0,0.0,41,0.00,CLR,,0.00,WeatherDisplay:10.37,2013-01-07 19:23:00,
2013-01-07 14:28:00,61.9,38.5,30.46,NNW,338,0.0,0.0,42,0.00,CLR,,0.00,WeatherDisplay:10.37,2013-01-07 19:28:00,
2013-01-07 14:33:00,61.9,37.9,30.44,NNW,338,0.0,0.0,41,0.00,CLR,,0.00,WeatherDisplay:10.37,2013-01-07 19:33:00,
2013-01-07 14:38:00,61.5,38.2,30.44,NNW,338,0.0,0.0,42,0.00,CLR,,0.00,WeatherDisplay:10.37,2013-01-07 19:38:00,
2013-01-07 14:43:00,61.0,38.3,30.44,NNW,338,0.0,0.0,43,0.00,CLR,,0.00,WeatherDisplay:10.37,2013-01-07 19:43:00,
2013-01-07 14:48:00,60.8,37.5,30.44,NNW,338,0.0,0.0,42,0.00,CLR,,0.00,WeatherDisplay:10.37,2013-01-07 19:48:00,
2013-01-07 14:53:00,60.6,37.4,30.45,NNW,338,0.0,0.0,42,0.00,CLR,,0.00,WeatherDisplay:10.37,2013-01-07 19:53:00,
2013-01-07 14:58:00,60.6,38.0,30.45,NNW,338,0.0,0.0,43,0.00,CLR,,0.00,WeatherDisplay:10.37,2013-01-07 19:58:00,
2013-01-07 15:03:00,60.6,38.0,30.45,NNW,338,0.0,0.0,43,0.00,CLR,,0.00,WeatherDisplay:10.37,2013-01-07 20:03:00,
2013-01-07 15:08:00,60.6,37.4,30.45,NNW,338,0.0,0.0,42,0.00,CLR,,0.00,WeatherDisplay:10.37,2013-01-07 20:08:00,
2013-01-07 15:13:00,60.1,37.5,30.43,NNW,338,0.0,0.0,43,0.00,CLR,,0.00,WeatherDisplay:10.37,2013-01-07 20:13:00,
2013-01-07 15:18:00,60.1,37.5,30.43,NNW,338,0.0,0.0,43,0.00,CLR,,0.00,WeatherDisplay:10.37,2013-01-07 20:18:00,
2013-01-07 15:20:00,59.9,37.3,30.43,NNW,338,0.0,0.0,43,0.00,CLR,,0.00,WeatherDisplay:10.37,2013-01-07 20:20:00,
2013-01-07 15:25:00,59.5,37.0,30.43,NNW,338,0.0,0.0,43,0.00,CLR,,0.00,WeatherDisplay:10.37,2013-01-07 20:25:00,
2013-01-07 15:30:00,59.5,37.0,30.43,NNW,338,0.0,0.0,43,0.00,CLR,,0.00,WeatherDisplay:10.37,2013-01-07 20:30:00,
2013-01-07 15:35:00,60.1,36.3,30.43,NNW,338,0.0,0.0,41,0.00,CLR,,0.00,WeatherDisplay:10.37,2013-01-07 20:35:00,
2013-01-07 15:40:00,59.9,35.5,30.43,NNW,338,0.0,0.0,40,0.00,CLR,,0.00,WeatherDisplay:10.37,2013-01-07 20:40:00,
2013-01-07 15:45:00,59.5,35.8,30.43,NNW,338,0.0,0.0,41,0.00,CLR,,0.00,WeatherDisplay:10.37,2013-01-07 20:45:00,
2013-01-07 15:50:00,58.8,34.5,30.43,NNW,338,0.0,0.0,40,0.00,CLR,,0.00,WeatherDisplay:10.37,2013-01-07 20:50:00,
2013-01-07 15:55:00,58.5,35.4,30.43,NNW,338,0.0,0.0,42,0.00,CLR,,0.00,WeatherDisplay:10.37,2013-01-07 20:55:00,
2013-01-07 16:00:00,58.5,35.4,30.43,NNW,338,0.0,0.0,42,0.00,CLR,,0.00,WeatherDisplay:10.37,2013-01-07 21:00:00,
2013-01-07 16:05:00,58.5,36.0,30.43,NNW,338,0.0,0.0,43,0.00,CLR,,0.00,WeatherDisplay:10.37,2013-01-07 21:05:00,
2013-01-07 16:10:00,58.1,35.1,30.42,NNW,338,0.0,0.0,42,0.00,CLR,,0.00,WeatherDisplay:10.37,2013-01-07 21:10:00,
2013-01-07 16:15:00,57.4,35.0,30.42,NNW,338,0.0,0.0,43,0.00,CLR,,0.00,WeatherDisplay:10.37,2013-01-07 21:15:00,
2013-01-07 16:20:00,57.2,34.9,30.42,NNW,338,0.0,0.0,43,0.00,CLR,,0.00,WeatherDisplay:10.37,2013-01-07 21:20:00,
2013-01-07 16:25:00,57.0,35.3,30.42,NNW,338,0.0,0.0,44,0.00,CLR,,0.00,WeatherDisplay:10.37,2013-01-07 21:25:00,
2013-01-07 16:30:00,56.8,35.7,30.43,NNW,338,0.0,0.0,45,0.00,CLR,,0.00,WeatherDisplay:10.37,2013-01-07 21:30:00,
2013-01-07 16:35:00,56.5,34.8,30.43,NNW,338,0.0,0.0,44,0.00,CLR,,0.00,WeatherDisplay:10.37,2013-01-07 21:35:00,
2013-01-07 16:40:00,56.1,35.1,30.43,NNW,338,0.0,0.0,45,0.00,CLR,,0.00,WeatherDisplay:10.37,2013-01-07 21:40:00,
2013-01-07 16:45:00,55.8,34.7,30.43,NNW,338,0.0,0.0,45,0.00,CLR,,0.00,WeatherDisplay:10.37,2013-01-07 21:45:00,
2013-01-07 16:50:00,55.6,35.1,30.42,NNW,338,0.0,0.0,46,0.00,CLR,,0.00,WeatherDisplay:10.37,2013-01-07 21:50:00,
2013-01-07 16:55:00,55.4,35.5,30.42,NNW,338,0.0,0.0,47,0.00,CLR,,0.00,WeatherDisplay:10.37,2013-01-07 21:55:00,
2013-01-07 17:00:00,55.0,35.2,30.42,NNW,338,0.0,0.0,47,0.00,CLR,,0.00,WeatherDisplay:10.37,2013-01-07 22:00:00,
2013-01-07 17:05:00,55.0,35.7,30.42,NNW,338,0.0,0.0,48,0.00,CLR,,0.00,WeatherDisplay:10.37,2013-01-07 22:05:00,
2013-01-07 17:10:00,54.7,35.9,30.41,NNW,338,0.0,0.0,49,0.00,CLR,,0.00,WeatherDisplay:10.37,2013-01-07 22:10:00,
2013-01-07 17:15:00,54.3,36.6,30.41,NNW,338,0.0,0.0,51,0.00,CLR,,0.00,WeatherDisplay:10.37,2013-01-07 22:15:00,
2013-01-07 17:20:00,54.1,36.9,30.41,NNW,338,0.0,0.0,52,0.00,CLR,,0.00,WeatherDisplay:10.37,2013-01-07 22:20:00,
2013-01-07 17:25:00,54.1,36.9,30.41,NNW,338,0.0,0.0,52,0.00,CLR,,0.00,WeatherDisplay:10.37,2013-01-07 22:25:00,
2013-01-07 17:30:00,53.6,36.9,30.40,NNW,338,0.0,0.0,53,0.00,CLR,,0.00,WeatherDisplay:10.37,2013-01-07 22:30:00,
2013-01-07 17:35:00,53.4,37.2,30.40,NNW,338,0.0,0.0,54,0.00,CLR,,0.00,WeatherDisplay:10.37,2013-01-07 22:35:00,
2013-01-07 17:40:00,53.2,37.5,30.40,NNW,338,0.0,0.0,55,0.00,CLR,,0.00,WeatherDisplay:10.37,2013-01-07 22:40:00,
2013-01-07 17:45:00,53.4,37.6,30.40,NNW,338,0.0,0.0,55,0.00,CLR,,0.00,WeatherDisplay:10.37,2013-01-07 22:45:00,
2013-01-07 17:50:00,53.1,37.3,30.40,NNW,338,0.0,0.0,55,0.00,CLR,,0.00,WeatherDisplay:10.37,2013-01-07 22:50:00,
2013-01-07 17:55:00,52.3,37.5,30.40,NNW,338,0.0,0.0,57,0.00,CLR,,0.00,WeatherDisplay:10.37,2013-01-07 22:55:00,
2013-01-07 18:00:00,52.2,37.4,30.40,NNW,338,0.0,0.0,57,0.00,CLR,,0.00,WeatherDisplay:10.37,2013-01-07 23:00:00,
2013-01-07 18:05:00,52.3,37.5,30.40,NNW,338,0.0,0.0,57,0.00,CLR,,0.00,WeatherDisplay:10.37,2013-01-07 23:05:00,
2013-01-07 18:10:00,52.3,37.5,30.40,NNW,338,0.0,0.0,57,0.00,CLR,,0.00,WeatherDisplay:10.37,2013-01-07 23:10:00,
2013-01-07 18:15:00,51.6,37.3,30.40,NNW,338,0.0,0.0,58,0.00,CLR,,0.00,WeatherDisplay:10.37,2013-01-07 23:15:00,
2013-01-07 18:20:00,51.4,37.1,30.40,NNW,338,0.0,0.0,58,0.00,CLR,,0.00,WeatherDisplay:10.37,2013-01-07 23:20:00,
2013-01-07 18:25:00,51.3,37.4,30.40,NNW,338,0.0,0.0,59,0.00,CLR,,0.00,WeatherDisplay:10.37,2013-01-07 23:25:00,
2013-01-07 18:30:00,50.9,37.5,30.40,NNW,338,0.0,0.0,60,0.00,CLR,,0.00,WeatherDisplay:10.37,2013-01-07 23:30:00,
2013-01-07 18:35:00,50.5,37.6,30.40,NNW,338,0.0,0.0,61,0.00,CLR,,0.00,WeatherDisplay:10.37,2013-01-07 23:35:00,
2013-01-07 18:40:00,50.5,37.6,30.40,NNW,338,0.0,0.0,61,0.00,CLR,,0.00,WeatherDisplay:10.37,2013-01-07 23:40:00,
2013-01-07 18:45:00,49.8,37.7,30.40,NNW,338,0.0,0.0,63,0.00,CLR,,0.00,WeatherDisplay:10.37,2013-01-07 23:45:00,
2013-01-07 18:50:00,49.6,37.6,30.40,NNW,338,0.0,0.0,63,0.00,CLR,,0.00,WeatherDisplay:10.37,2013-01-07 23:50:00,
2013-01-07 18:55:00,49.3,38.0,30.40,NNW,338,0.0,0.0,65,0.00,CLR,,0.00,WeatherDisplay:10.37,2013-01-07 23:55:00,
2013-01-07 19:00:00,49.1,37.8,30.40,NNW,338,0.0,0.0,65,0.00,CLR,,0.00,WeatherDisplay:10.37,2013-01-08 00:00:00,
2013-01-07 19:05:00,49.1,37.8,30.40,NNW,338,0.0,0.0,65,0.00,CLR,,0.00,WeatherDisplay:10.37,2013-01-08 00:05:00,
2013-01-07 19:10:00,49.1,37.8,30.40,NNW,338,0.0,0.0,65,0.00,CLR,,0.00,WeatherDisplay:10.37,2013-01-08 00:10:00,
2013-01-07 19:15:00,48.7,37.9,30.40,NNW,338,0.0,0.0,66,0.00,CLR,,0.00,WeatherDisplay:10.37,2013-01-08 00:15:00,
2013-01-07 19:20:00,48.7,37.9,30.40,NNW,338,0.0,0.0,66,0.00,CLR,,0.00,WeatherDisplay:10.37,2013-01-08 00:20:00,
2013-01-07 19:25:00,48.4,38.3,30.40,NNW,338,0.0,0.0,68,0.00,CLR,,0.00,WeatherDisplay:10.37,2013-01-08 00:25:00,
2013-01-07 19:30:00,48.4,38.3,30.40,NNW,338,0.0,0.0,68,0.00,CLR,,0.00,WeatherDisplay:10.37,2013-01-08 00:30:00,
2013-01-07 19:35:00,48.0,38.3,30.40,NNW,338,0.0,0.0,69,0.00,CLR,,0.00,WeatherDisplay:10.37,2013-01-08 00:35:00,
2013-01-07 19:40:00,47.8,38.2,30.40,NNW,338,0.0,0.0,69,0.00,CLR,,0.00,WeatherDisplay:10.37,2013-01-08 00:40:00,
2013-01-07 19:45:00,47.8,38.2,30.40,NNW,338,0.0,0.0,69,0.00,CLR,,0.00,WeatherDisplay:10.37,2013-01-08 00:45:00,
2013-01-07 19:50:00,47.8,38.5,30.40,NNW,338,0.0,0.0,70,0.00,CLR,,0.00,WeatherDisplay:10.37,2013-01-08 00:50:00,
2013-01-07 19:55:00,47.7,38.4,30.40,NNW,338,0.0,0.0,70,0.00,CLR,,0.00,WeatherDisplay:10.37,2013-01-08 00:55:00,
2013-01-07 20:00:00,47.7,38.4,30.40,NNW,338,0.0,0.0,70,0.00,CLR,,0.00,WeatherDisplay:10.37,2013-01-08 01:00:00,
2013-01-07 20:05:00,47.5,37.8,30.40,NNW,338,0.0,0.0,69,0.00,CLR,,0.00,WeatherDisplay:10.37,2013-01-08 01:05:00,
2013-01-07 20:10:00,47.7,38.0,30.41,NNW,338,0.0,0.0,69,0.00,CLR,,0.00,WeatherDisplay:10.37,2013-01-08 01:10:00,
2013-01-07 20:15:00,47.7,38.0,30.41,NNW,338,0.0,0.0,69,0.00,CLR,,0.00,WeatherDisplay:10.37,2013-01-08 01:15:00,
2013-01-07 20:20:00,47.7,38.0,30.41,NNW,338,0.0,0.0,69,0.00,CLR,,0.00,WeatherDisplay:10.37,2013-01-08 01:20:00,
2013-01-07 20:25:00,47.5,38.2,30.41,NNW,338,0.0,0.0,70,0.00,CLR,,0.00,WeatherDisplay:10.37,2013-01-08 01:25:00,
2013-01-07 20:30:00,47.7,38.4,30.41,NNW,338,0.0,0.0,70,0.00,CLR,,0.00,WeatherDisplay:10.37,2013-01-08 01:30:00,
2013-01-07 20:35:00,47.1,38.2,30.41,NNW,338,0.0,0.0,71,0.00,CLR,,0.00,WeatherDisplay:10.37,2013-01-08 01:35:00,
2013-01-07 20:40:00,47.1,38.2,30.41,NNW,338,0.0,0.0,71,0.00,CLR,,0.00,WeatherDisplay:10.37,2013-01-08 01:40:00,
2013-01-07 20:45:00,47.1,38.2,30.41,NNW,338,0.0,0.0,71,0.00,CLR,,0.00,WeatherDisplay:10.37,2013-01-08 01:45:00,
2013-01-07 20:50:00,47.1,38.2,30.40,NNW,338,0.0,0.0,71,0.00,CLR,,0.00,WeatherDisplay:10.37,2013-01-08 01:50:00,
2013-01-07 20:55:00,47.1,38.6,30.40,NNW,338,0.0,0.0,72,0.00,CLR,,0.00,WeatherDisplay:10.37,2013-01-08 01:55:00,
2013-01-07 21:00:00,47.1,38.6,30.40,NNW,338,0.0,0.0,72,0.00,CLR,,0.00,WeatherDisplay:10.37,2013-01-08 02:00:00,
2013-01-07 21:05:00,47.1,38.6,30.40,NNW,338,0.0,0.0,72,0.00,CLR,,0.00,WeatherDisplay:10.37,2013-01-08 02:05:00,
2013-01-07 21:10:00,47.1,38.6,30.39,NNW,338,0.0,0.0,72,0.00,CLR,,0.00,WeatherDisplay:10.37,2013-01-08 02:10:00,
2013-01-07 21:15:00,46.9,38.4,30.39,NNW,338,0.0,0.0,72,0.00,CLR,,0.00,WeatherDisplay:10.37,2013-01-08 02:15:00,
2013-01-07 21:20:00,46.9,38.4,30.39,NNW,338,0.0,0.0,72,0.00,CLR,,0.00,WeatherDisplay:10.37,2013-01-08 02:20:00,
2013-01-07 21:25:00,46.8,38.6,30.39,NNW,338,0.0,0.0,73,0.00,CLR,,0.00,WeatherDisplay:10.37,2013-01-08 02:25:00,
2013-01-07 21:30:00,46.9,38.7,30.38,NNW,338,0.0,0.0,73,0.00,CLR,,0.00,WeatherDisplay:10.37,2013-01-08 02:30:00,
2013-01-07 21:35:00,46.9,38.7,30.38,NNW,338,0.0,0.0,73,0.00,CLR,,0.00,WeatherDisplay:10.37,2013-01-08 02:35:00,
2013-01-07 21:40:00,46.9,38.7,30.38,NNW,338,0.0,0.0,73,0.00,CLR,,0.00,WeatherDisplay:10.37,2013-01-08 02:40:00,
2013-01-07 21:45:00,46.9,38.7,30.38,NNW,338,0.0,0.0,73,0.00,CLR,,0.00,WeatherDisplay:10.37,2013-01-08 02:45:00,
2013-01-07 21:50:00,46.9,38.7,30.39,NNW,338,0.0,0.0,73,0.00,CLR,,0.00,WeatherDisplay:10.37,2013-01-08 02:50:00,
2013-01-07 21:55:00,46.9,38.7,30.39,NNW,338,0.0,0.0,73,0.00,CLR,,0.00,WeatherDisplay:10.37,2013-01-08 02:55:00,
2013-01-07 22:00:00,46.9,38.7,30.39,NNW,338,0.0,0.0,73,0.00,CLR,,0.00,WeatherDisplay:10.37,2013-01-08 03:00:00,
2013-01-07 22:05:00,46.9,38.7,30.39,NNW,338,0.0,0.0,73,0.00,CLR,,0.00,WeatherDisplay:10.37,2013-01-08 03:05:00,
2013-01-07 22:10:00,46.9,38.7,30.39,NNW,338,0.0,0.0,73,0.00,CLR,,0.00,WeatherDisplay:10.37,2013-01-08 03:10:00,
2013-01-07 22:15:00,46.6,38.7,30.39,NNW,338,0.0,0.0,74,0.00,CLR,,0.00,WeatherDisplay:10.37,2013-01-08 03:15:00,
2013-01-07 22:20:00,46.6,38.7,30.39,NNW,338,0.0,0.0,74,0.00,CLR,,0.00,WeatherDisplay:10.37,2013-01-08 03:20:00,
2013-01-07 22:25:00,46.6,38.7,30.39,NNW,338,0.0,0.0,74,0.00,CLR,,0.00,WeatherDisplay:10.37,2013-01-08 03:25:00,
2013-01-07 22:30:00,46.6,38.7,30.38,NNW,338,0.0,0.0,74,0.00,CLR,,0.00,WeatherDisplay:10.37,2013-01-08 03:30:00,
2013-01-07 22:35:00,46.6,38.7,30.38,West,270,0.0,0.0,74,0.00,CLR,,0.00,WeatherDisplay:10.37,2013-01-08 03:35:00,
2013-01-07 22:40:00,46.8,38.6,30.38,West,270,0.0,0.0,73,0.00,CLR,,0.00,WeatherDisplay:10.37,2013-01-08 03:40:00,
2013-01-07 22:45:00,46.8,38.9,30.38,West,270,0.0,0.0,74,0.00,CLR,,0.00,WeatherDisplay:10.37,2013-01-08 03:45:00,
2013-01-07 22:50:00,46.9,39.1,30.38,ESE,112,0.0,0.0,74,0.00,CLR,,0.00,WeatherDisplay:10.37,2013-01-08 03:50:00,
2013-01-07 22:55:00,46.8,38.9,30.38,ESE,112,0.0,0.0,74,0.00,CLR,,0.00,WeatherDisplay:10.37,2013-01-08 03:55:00,
2013-01-07 23:00:00,46.6,38.7,30.38,ENE,68,0.0,0.0,74,0.00,CLR,,0.00,WeatherDisplay:10.37,2013-01-08 04:00:00,
2013-01-07 23:05:00,46.8,38.9,30.38,ENE,68,0.0,0.0,74,0.00,CLR,,0.00,WeatherDisplay:10.37,2013-01-08 04:05:00,
2013-01-07 23:10:00,46.9,39.4,30.38,ENE,68,0.0,0.0,75,0.00,CLR,,0.00,WeatherDisplay:10.37,2013-01-08 04:10:00,
2013-01-07 23:15:00,46.9,39.4,30.38,ENE,68,0.0,0.0,75,0.00,CLR,,0.00,WeatherDisplay:10.37,2013-01-08 04:15:00,
2013-01-07 23:20:00,46.9,39.4,30.38,ESE,112,0.1,0.0,75,0.00,CLR,,0.00,WeatherDisplay:10.37,2013-01-08 04:20:00,
2013-01-07 23:25:00,46.6,39.1,30.38,East,90,0.1,0.0,75,0.00,CLR,,0.00,WeatherDisplay:10.37,2013-01-08 04:25:00,
2013-01-07 23:30:00,46.6,39.1,30.37,WNW,292,0.0,0.0,75,0.00,CLR,,0.00,WeatherDisplay:10.37,2013-01-08 04:30:00,
2013-01-07 23:35:00,46.6,39.1,30.37,ENE,68,0.0,0.0,75,0.00,CLR,,0.00,WeatherDisplay:10.37,2013-01-08 04:35:00,
2013-01-07 23:40:00,46.6,39.1,30.37,East,90,0.0,0.0,75,0.00,CLR,,0.00,WeatherDisplay:10.37,2013-01-08 04:40:00,
2013-01-07 23:45:00,46.6,39.1,30.37,ENE,68,0.0,0.0,75,0.00,CLR,,0.00,WeatherDisplay:10.37,2013-01-08 04:45:00,
2013-01-07 23:50:00,46.6,39.1,30.37,ENE,68,0.0,0.0,75,0.00,CLR,,0.00,WeatherDisplay:10.37,2013-01-08 04:50:00,
2013-01-07 23:55:00,46.6,39.1,30.37,NE,45,0.0,0.0,75,0.00,CLR,,0.00,WeatherDisplay:10.37,2013-01-08 04:55:00,